Time;durP1;ratioP1;P1;durP2;ratioP2;P2;SDS_P1;SDS_P2;PMS_P1;PMS_P2;Temp;Humidity;BMP_temperature;BMP_pressure;BME280_temperature;BME280_humidity;BME280_pressure;Samples;Min_cycle;Max_cycle;Signal;HPM_P1;HPM_P2
2022/07/25 00:00:37;;;;;;;13.75;12.07;;;21.70;99.90;;;;;;4980744;28;20219;-92
2022/07/25 00:03:03;;;;;;;12.38;11.07;;;21.60;99.90;;;;;;4980643;28;20186;-91
2022/07/25 00:05:29;;;;;;;14.60;11.82;;;21.60;99.90;;;;;;4981052;28;20230;-93
2022/07/25 00:07:55;;;;;;;12.25;11.15;;;21.60;99.90;;;;;;4980773;28;20215;-92
2022/07/25 00:10:21;;;;;;;13.38;12.18;;;21.50;99.90;;;;;;4980580;28;20253;-92
2022/07/25 00:12:46;;;;;;;12.20;11.20;;;21.50;99.90;;;;;;4980652;28;20270;-92
2022/07/25 00:15:13;;;;;;;12.55;11.45;;;21.50;99.90;;;;;;4981211;28;20175;-92
2022/07/25 00:17:39;;;;;;;13.38;12.10;;;21.50;99.90;;;;;;4981148;28;20190;-92
2022/07/25 00:20:07;;;;;;;12.02;10.82;;;21.50;99.90;;;;;;4981108;28;20183;-92
2022/07/25 00:22:33;;;;;;;11.77;10.68;;;21.40;99.90;;;;;;4981598;28;20199;-92
2022/07/25 00:24:59;;;;;;;13.02;11.82;;;21.40;99.90;;;;;;4981371;28;20187;-92
2022/07/25 00:27:25;;;;;;;11.75;10.75;;;21.20;99.90;;;;;;4980244;28;20274;-92
2022/07/25 00:29:51;;;;;;;13.65;11.32;;;21.10;99.90;;;;;;4981227;28;20207;-92
2022/07/25 00:32:17;;;;;;;12.68;10.63;;;21.00;99.90;;;;;;4980418;28;20238;-92
2022/07/25 00:34:43;;;;;;;12.13;11.00;;;21.00;99.90;;;;;;4980321;28;20283;-92
2022/07/25 00:37:09;;;;;;;11.90;10.80;;;21.00;99.90;;;;;;4979923;28;20191;-92
2022/07/25 00:39:35;;;;;;;12.32;11.13;;;21.00;99.90;;;;;;4979985;28;20183;-92
2022/07/25 00:42:01;;;;;;;11.98;10.77;;;21.00;99.90;;;;;;4979977;28;20215;-92
2022/07/25 00:44:32;;;;;;;13.40;11.30;;;21.00;99.90;;;;;;4979914;28;20186;-92
2022/07/25 00:46:58;;;;;;;11.98;10.88;;;21.00;99.90;;;;;;4979750;28;20249;-92
2022/07/25 00:49:25;;;;;;;13.48;12.18;;;21.10;99.90;;;;;;4979951;28;20279;-92
2022/07/25 00:51:52;;;;;;;13.20;11.98;;;21.00;99.90;;;;;;4979705;28;20214;-91
2022/07/25 00:54:18;;;;;;;13.13;11.82;;;21.00;99.90;;;;;;4979524;28;20190;-92
2022/07/25 00:56:45;;;;;;;14.10;12.70;;;20.90;99.90;;;;;;4979729;28;20179;-93
2022/07/25 00:59:11;;;;;;;13.82;12.43;;;20.90;99.90;;;;;;4979976;28;20184;-92
2022/07/25 01:01:38;;;;;;;13.68;12.30;;;20.80;99.90;;;;;;4979734;28;20223;-92
2022/07/25 01:04:04;;;;;;;13.35;12.15;;;20.80;99.90;;;;;;4979529;28;20183;-91
2022/07/25 01:06:31;;;;;;;14.70;13.20;;;20.80;99.90;;;;;;4979348;28;20184;-92
2022/07/25 01:08:57;;;;;;;14.68;13.02;;;20.70;99.90;;;;;;4979372;28;20181;-91
2022/07/25 01:11:24;;;;;;;13.77;12.48;;;20.70;99.90;;;;;;4979549;28;20266;-93
2022/07/25 01:13:51;;;;;;;13.23;11.95;;;20.70;99.90;;;;;;4979051;28;20195;-92
2022/07/25 01:16:17;;;;;;;14.07;12.70;;;20.70;99.90;;;;;;4979826;28;20179;-92
2022/07/25 01:18:43;;;;;;;14.57;13.18;;;20.70;99.90;;;;;;4979229;28;20235;-92
2022/07/25 01:21:09;;;;;;;14.75;13.25;;;20.70;99.90;;;;;;4978729;28;20234;-91
2022/07/25 01:23:35;;;;;;;16.55;13.55;;;20.70;99.90;;;;;;4979009;28;20217;-92
2022/07/25 01:26:02;;;;;;;13.60;12.20;;;20.60;99.90;;;;;;4979253;28;20186;-92
2022/07/25 01:28:28;;;;;;;12.80;11.57;;;20.60;99.90;;;;;;4979146;28;20171;-92
2022/07/25 01:30:54;;;;;;;13.38;12.05;;;20.50;99.90;;;;;;4978932;28;20219;-91
2022/07/25 01:33:21;;;;;;;12.60;11.48;;;20.40;99.90;;;;;;4978909;28;20183;-92
2022/07/25 01:35:48;;;;;;;14.55;12.70;;;20.30;99.90;;;;;;4978869;28;20183;-92
2022/07/25 01:38:14;;;;;;;13.85;12.45;;;20.20;99.90;;;;;;4978494;28;20186;-92
2022/07/25 01:40:41;;;;;;;12.23;11.13;;;20.20;99.90;;;;;;4978529;28;20219;-92
2022/07/25 01:43:07;;;;;;;14.45;12.23;;;20.10;99.90;;;;;;4978992;28;20175;-92
2022/07/25 01:45:34;;;;;;;14.65;12.77;;;20.20;99.90;;;;;;4978694;28;20187;-91
2022/07/25 01:48:00;;;;;;;13.13;11.93;;;20.20;99.90;;;;;;4978637;28;20175;-92
2022/07/25 01:50:26;;;;;;;13.57;12.27;;;20.10;99.90;;;;;;4978631;28;20180;-92
2022/07/25 01:52:52;;;;;;;13.55;12.05;;;20.10;99.90;;;;;;4978845;28;20189;-92
2022/07/25 01:55:18;;;;;;;12.48;11.18;;;20.10;99.90;;;;;;4978846;28;20190;-92
2022/07/25 01:57:44;;;;;;;13.27;11.88;;;20.00;99.90;;;;;;4978477;28;20278;-92
2022/07/25 02:00:12;;;;;;;14.02;12.73;;;20.00;99.90;;;;;;4978268;28;20191;-92
2022/07/25 02:02:42;;;;;;;13.90;12.50;;;20.00;99.90;;;;;;4994829;28;20285;-91
2022/07/25 02:05:10;;;;;;;14.55;12.93;;;20.00;99.90;;;;;;4978177;28;20175;-91
2022/07/25 02:07:36;;;;;;;14.60;12.52;;;20.00;99.90;;;;;;4978523;28;20233;-92
2022/07/25 02:10:04;;;;;;;13.93;12.52;;;19.90;99.90;;;;;;4978235;28;20180;-92
2022/07/25 02:12:30;;;;;;;13.23;11.93;;;20.00;99.90;;;;;;4978357;28;20266;-92
2022/07/25 02:14:56;;;;;;;13.95;12.55;;;19.90;99.90;;;;;;4977814;28;20183;-91
2022/07/25 02:17:22;;;;;;;14.70;12.25;;;19.80;99.90;;;;;;4978342;28;20233;-92
2022/07/25 02:19:48;;;;;;;13.20;11.93;;;19.80;99.90;;;;;;4978046;28;20179;-92
2022/07/25 02:22:14;;;;;;;13.55;12.23;;;19.80;99.90;;;;;;4978320;28;20219;-92
2022/07/25 02:24:40;;;;;;;13.20;11.85;;;19.90;99.90;;;;;;4978200;28;20176;-92
2022/07/25 02:27:07;;;;;;;14.05;12.65;;;19.90;99.90;;;;;;4978270;28;20210;-91
2022/07/25 02:29:33;;;;;;;12.80;11.55;;;19.90;99.90;;;;;;4978189;28;20297;-91
2022/07/25 02:31:59;;;;;;;13.85;12.43;;;19.90;99.90;;;;;;4977747;28;20214;-92
2022/07/25 02:34:25;;;;;;;12.75;11.55;;;19.90;99.90;;;;;;4977514;28;20193;-91
2022/07/25 02:36:50;;;;;;;13.32;12.10;;;19.90;99.90;;;;;;4978240;28;20199;-92
2022/07/25 02:39:16;;;;;;;13.43;12.02;;;19.90;99.90;;;;;;4978232;28;20194;-91
2022/07/25 02:41:43;;;;;;;13.70;12.30;;;19.80;99.90;;;;;;4977922;28;20219;-91
2022/07/25 02:44:09;;;;;;;14.55;13.25;;;19.70;99.90;;;;;;4977874;28;20183;-92
2022/07/25 02:46:35;;;;;;;14.07;12.70;;;19.60;99.90;;;;;;4977855;28;20198;-91
2022/07/25 02:49:02;;;;;;;14.52;13.15;;;19.50;99.90;;;;;;4977863;28;20218;-91
2022/07/25 02:51:28;;;;;;;14.70;13.20;;;19.40;99.90;;;;;;4979823;28;20210;-91
2022/07/25 02:53:54;;;;;;;14.48;13.07;;;19.40;99.90;;;;;;4982139;28;20183;-91
2022/07/25 02:56:20;;;;;;;15.35;13.77;;;19.40;99.90;;;;;;4982121;28;20179;-92
2022/07/25 02:58:46;;;;;;;14.88;13.48;;;19.40;99.90;;;;;;4981528;28;20205;-92
2022/07/25 03:01:12;;;;;;;14.43;13.10;;;19.40;99.90;;;;;;4981347;28;20290;-92
2022/07/25 03:03:38;;;;;;;15.57;13.93;;;19.40;99.90;;;;;;4981623;28;20202;-91
2022/07/25 03:06:04;;;;;;;15.55;14.10;;;19.30;99.90;;;;;;4981508;28;20179;-91
2022/07/25 03:08:30;;;;;;;15.25;13.88;;;19.30;99.90;;;;;;4981576;28;20250;-91
2022/07/25 03:10:57;;;;;;;14.75;13.05;;;19.10;99.90;;;;;;4981541;28;20245;-91
2022/07/25 03:13:23;;;;;;;16.35;13.93;;;19.20;99.90;;;;;;4981488;28;20198;-92
2022/07/25 03:15:49;;;;;;;14.55;13.15;;;19.20;99.90;;;;;;4981299;28;20274;-91
2022/07/25 03:18:15;;;;;;;18.02;13.10;;;19.20;99.90;;;;;;4981755;28;20281;-91
2022/07/25 03:20:41;;;;;;;14.30;12.90;;;19.20;99.90;;;;;;4981488;28;20218;-91
2022/07/25 03:23:07;;;;;;;14.98;13.48;;;19.20;99.90;;;;;;4981052;28;20238;-92
2022/07/25 03:25:33;;;;;;;14.65;13.18;;;19.10;99.90;;;;;;4980961;28;20210;-91
2022/07/25 03:27:59;;;;;;;15.15;13.65;;;19.10;99.90;;;;;;4981430;28;20175;-92
2022/07/25 03:30:25;;;;;;;15.45;13.85;;;19.10;99.90;;;;;;4980718;28;20237;-92
2022/07/25 03:32:51;;;;;;;15.98;14.35;;;19.10;99.90;;;;;;4980853;28;20211;-92
2022/07/25 03:35:17;;;;;;;15.02;13.45;;;19.10;99.90;;;;;;4980815;28;20213;-91
2022/07/25 03:37:43;;;;;;;16.10;14.30;;;19.10;99.90;;;;;;4981061;28;20186;-91
2022/07/25 03:40:14;;;;;;;14.85;13.45;;;19.00;99.90;;;;;;4981166;28;20179;-91
2022/07/25 03:42:40;;;;;;;13.35;12.15;;;19.00;99.90;;;;;;4980746;28;20179;-91
2022/07/25 03:45:07;;;;;;;15.02;13.23;;;19.00;99.90;;;;;;4980841;28;20215;-91
2022/07/25 03:47:32;;;;;;;15.48;13.95;;;18.90;99.90;;;;;;4980923;28;20175;-91
2022/07/25 03:49:58;;;;;;;14.38;12.93;;;18.90;99.90;;;;;;4981144;28;20186;-91
2022/07/25 03:52:24;;;;;;;14.77;13.27;;;18.90;99.90;;;;;;4980798;28;20286;-91
2022/07/25 03:54:50;;;;;;;14.80;13.23;;;18.80;99.90;;;;;;4980582;28;20662;-91
2022/07/25 03:57:16;;;;;;;13.23;11.93;;;18.80;99.90;;;;;;4980867;28;20206;-91
2022/07/25 03:59:42;;;;;;;13.48;12.05;;;18.80;99.90;;;;;;4980906;28;20183;-91
2022/07/25 04:02:08;;;;;;;15.75;12.73;;;18.70;99.90;;;;;;4979370;28;20219;-91
2022/07/25 04:04:34;;;;;;;13.38;11.98;;;18.70;99.90;;;;;;4981491;28;20179;-91
2022/07/25 04:07:00;;;;;;;14.18;12.88;;;18.70;99.90;;;;;;4981520;28;20179;-92
2022/07/25 04:09:26;;;;;;;14.20;12.70;;;18.60;99.90;;;;;;4983015;28;20215;-92
2022/07/25 04:11:56;;;;;;;14.38;12.85;;;18.70;99.90;;;;;;4994767;28;20207;-92
2022/07/25 04:14:36;;;;;;;15.00;13.40;;;18.70;99.90;;;;;;5001240;28;20189;-93
2022/07/25 04:17:07;;;;;;;14.27;13.02;;;18.70;99.90;;;;;;5016474;28;20248;-92
2022/07/25 04:19:39;;;;;;;14.38;12.73;;;18.70;99.90;;;;;;5035056;28;20222;-92
2022/07/25 04:22:31;;;;;;;14.88;12.82;;;18.80;99.90;;;;;;5020959;28;20276;-92
2022/07/25 04:24:58;;;;;;;13.70;12.30;;;18.80;99.90;;;;;;4989361;28;20207;-92
2022/07/25 04:27:23;;;;;;;13.88;12.60;;;18.80;99.90;;;;;;4982593;28;20215;-93
2022/07/25 04:29:49;;;;;;;15.85;14.35;;;18.80;99.90;;;;;;4984001;28;20198;-93
2022/07/25 04:32:18;;;;;;;15.02;13.60;;;18.90;99.90;;;;;;4995051;28;20214;-92
2022/07/25 04:34:56;;;;;;;14.93;13.40;;;18.90;99.90;;;;;;5003233;28;20228;-92
2022/07/25 04:37:26;;;;;;;15.45;13.82;;;19.00;99.90;;;;;;5018952;28;20171;-92
2022/07/25 04:39:51;;;;;;;14.90;13.52;;;19.00;99.90;;;;;;4998698;28;20236;-92
2022/07/25 04:42:17;;;;;;;15.32;13.77;;;19.00;99.90;;;;;;4981308;28;20346;-92
2022/07/25 04:44:43;;;;;;;15.35;13.95;;;19.00;99.90;;;;;;4999281;28;20240;-92
2022/07/25 04:47:09;;;;;;;17.27;13.73;;;19.10;99.90;;;;;;4982244;28;20179;-92
2022/07/25 04:49:35;;;;;;;14.80;13.38;;;19.10;99.90;;;;;;4983602;28;20195;-91
2022/07/25 04:52:01;;;;;;;15.35;13.75;;;19.20;99.90;;;;;;4978434;28;20211;-92
2022/07/25 04:54:27;;;;;;;15.25;13.85;;;19.30;99.90;;;;;;4993375;28;20179;-92
2022/07/25 04:56:53;;;;;;;15.18;13.82;;;19.30;99.90;;;;;;4984386;28;20179;-92
2022/07/25 04:59:22;;;;;;;14.50;13.10;;;19.40;99.90;;;;;;4980698;28;20228;-92
2022/07/25 05:02:00;;;;;;;15.55;14.05;;;19.50;99.90;;;;;;5012921;28;20214;-94
2022/07/25 05:04:27;;;;;;;15.80;13.95;;;19.50;99.90;;;;;;4997315;28;20195;-92
2022/07/25 05:06:54;;;;;;;15.70;14.20;;;19.60;99.90;;;;;;4993618;28;20171;-92
2022/07/25 05:09:20;;;;;;;15.30;13.85;;;19.60;99.90;;;;;;4987910;28;20180;-92
2022/07/25 05:11:46;;;;;;;14.90;13.30;;;19.70;99.90;;;;;;4976571;28;20204;-92
2022/07/25 05:14:12;;;;;;;14.80;13.35;;;19.70;99.90;;;;;;4995237;28;20191;-91
2022/07/25 05:16:38;;;;;;;14.93;13.43;;;19.80;99.90;;;;;;4970954;28;20188;-91
2022/07/25 05:19:04;;;;;;;15.52;14.02;;;19.80;99.90;;;;;;4978093;28;20188;-92
2022/07/25 05:21:31;;;;;;;14.77;13.38;;;19.90;99.90;;;;;;4960805;28;20220;-92
2022/07/25 05:23:58;;;;;;;14.45;12.98;;;19.90;99.90;;;;;;4983125;28;20176;-93
2022/07/25 05:26:24;;;;;;;14.93;13.52;;;20.00;99.90;;;;;;4989558;28;20270;-93
2022/07/25 05:28:50;;;;;;;14.98;13.68;;;20.00;99.90;;;;;;4983910;28;20270;-92
2022/07/25 05:31:16;;;;;;;14.95;13.45;;;20.00;99.90;;;;;;4983695;28;20301;-92
2022/07/25 05:33:42;;;;;;;14.65;13.38;;;20.10;99.90;;;;;;4993803;28;20205;-92
2022/07/25 05:36:08;;;;;;;14.30;12.93;;;20.20;99.90;;;;;;5000942;28;20182;-89
2022/07/25 05:38:34;;;;;;;15.73;13.90;;;20.40;99.90;;;;;;5000537;28;20182;-92
2022/07/25 05:41:00;;;;;;;15.27;13.77;;;20.40;99.90;;;;;;5000376;28;20206;-92
2022/07/25 05:43:26;;;;;;;15.20;13.80;;;20.50;99.90;;;;;;5000868;28;20261;-92
2022/07/25 05:45:52;;;;;;;15.75;14.30;;;20.60;99.90;;;;;;5000731;28;20182;-92
2022/07/25 05:48:18;;;;;;;16.02;14.30;;;20.70;99.90;;;;;;4990850;28;20176;-92
2022/07/25 05:50:44;;;;;;;16.02;14.52;;;20.70;99.90;;;;;;4980708;28;20203;-92
2022/07/25 05:53:12;;;;;;;14.68;13.18;;;20.90;99.90;;;;;;4981578;28;20209;-92
2022/07/25 05:55:38;;;;;;;15.27;13.77;;;20.90;99.90;;;;;;4980254;28;20186;-92
2022/07/25 05:58:04;;;;;;;15.15;13.57;;;21.10;99.90;;;;;;5000090;28;20174;-92
2022/07/25 06:00:31;;;;;;;14.93;13.52;;;21.20;99.90;;;;;;4989239;28;20222;-92
2022/07/25 06:03:05;;;;;;;14.57;13.07;;;21.30;99.90;;;;;;4979694;28;20191;-93
2022/07/25 06:05:35;;;;;;;15.60;14.00;;;21.40;99.90;;;;;;4982358;28;20201;-92
2022/07/25 06:08:21;;;;;;;14.20;12.90;;;21.50;99.90;;;;;;4979977;28;20183;-91
2022/07/25 06:10:58;;;;;;;14.55;13.23;;;21.60;99.90;;;;;;4996562;28;20223;-92
2022/07/25 06:13:25;;;;;;;14.85;13.43;;;21.80;99.90;;;;;;4972585;28;20187;-91
2022/07/25 06:15:50;;;;;;;15.50;14.05;;;21.90;99.90;;;;;;4989766;28;20183;-91
2022/07/25 06:18:16;;;;;;;15.35;13.77;;;22.00;99.90;;;;;;4992799;28;20178;-92
2022/07/25 06:20:42;;;;;;;15.57;13.98;;;22.10;99.90;;;;;;4990444;28;20238;-93
2022/07/25 06:23:08;;;;;;;14.27;12.95;;;22.20;99.90;;;;;;4992330;28;20214;-92
2022/07/25 06:25:34;;;;;;;14.65;13.23;;;22.30;99.90;;;;;;4977646;28;20187;-76
2022/07/25 06:28:01;;;;;;;14.50;12.82;;;22.50;99.90;;;;;;4980789;28;20254;-93
2022/07/25 06:30:27;;;;;;;14.45;13.05;;;22.70;99.90;;;;;;4982043;28;20209;-92
2022/07/25 06:32:53;;;;;;;13.82;12.60;;;22.80;99.90;;;;;;4977448;28;20182;-92
2022/07/25 06:35:19;;;;;;;15.07;13.60;;;23.00;99.90;;;;;;4978859;28;20184;-92
2022/07/25 06:37:46;;;;;;;14.27;12.80;;;23.10;99.90;;;;;;4976109;28;20290;-91
2022/07/25 06:40:15;;;;;;;14.93;13.43;;;23.20;99.90;;;;;;4958520;28;20195;-91
2022/07/25 06:42:45;;;;;;;13.43;12.13;;;23.30;99.90;;;;;;4960662;28;20282;-92
2022/07/25 06:45:12;;;;;;;13.70;12.45;;;23.40;99.90;;;;;;4964873;28;20194;-92
2022/07/25 06:47:42;;;;;;;14.40;13.00;;;23.60;99.90;;;;;;4979096;28;20175;-92
2022/07/25 06:50:12;;;;;;;13.50;12.20;;;23.70;99.90;;;;;;4975700;28;20188;-92
2022/07/25 06:52:39;;;;;;;13.50;12.30;;;23.80;99.90;;;;;;4975589;28;20195;-92
2022/07/25 06:55:06;;;;;;;13.82;12.38;;;24.00;99.90;;;;;;4960558;28;20238;-92
2022/07/25 06:57:32;;;;;;;12.85;11.75;;;24.10;99.90;;;;;;4977768;28;20184;-93
2022/07/25 06:59:58;;;;;;;13.57;12.23;;;24.20;99.90;;;;;;4962062;28;20179;-92
2022/07/25 07:02:24;;;;;;;13.23;12.00;;;24.40;99.90;;;;;;4978031;28;20259;-92
2022/07/25 07:04:50;;;;;;;13.75;12.32;;;24.60;99.90;;;;;;4962146;28;20176;-92
2022/07/25 07:07:17;;;;;;;13.10;11.80;;;24.80;99.90;;;;;;4961862;28;20223;-92
2022/07/25 07:09:43;;;;;;;12.02;10.98;;;25.00;99.90;;;;;;4982105;28;20172;-92
2022/07/25 07:12:09;;;;;;;13.30;12.00;;;25.10;99.90;;;;;;4978557;28;20200;-92
2022/07/25 07:14:36;;;;;;;12.55;11.38;;;25.40;99.90;;;;;;4961087;28;20191;-92
2022/07/25 07:17:03;;;;;;;13.77;12.55;;;25.50;99.90;;;;;;4961638;28;20180;-92
2022/07/25 07:19:29;;;;;;;12.77;11.57;;;25.70;99.90;;;;;;4962085;28;20188;-93
2022/07/25 07:21:55;;;;;;;13.82;12.60;;;25.80;99.90;;;;;;4978293;28;20243;-92
2022/07/25 07:24:22;;;;;;;14.55;13.35;;;25.80;99.90;;;;;;4962076;28;20184;-93
2022/07/25 07:26:48;;;;;;;13.73;12.43;;;25.90;99.90;;;;;;4962317;28;20275;-93
2022/07/25 07:29:14;;;;;;;13.02;11.82;;;25.90;99.90;;;;;;4965295;28;20191;-93
2022/07/25 07:31:40;;;;;;;13.57;12.30;;;26.00;99.90;;;;;;4983077;28;20305;-93
2022/07/25 07:34:06;;;;;;;13.35;12.20;;;26.10;99.90;;;;;;4980631;28;20218;-92
2022/07/25 07:36:32;;;;;;;12.90;11.60;;;26.30;99.90;;;;;;4979593;28;20206;-92
2022/07/25 07:38:58;;;;;;;13.90;12.50;;;26.50;99.90;;;;;;4984416;28;20183;-93
2022/07/25 07:41:24;;;;;;;13.20;11.93;;;26.50;99.90;;;;;;4983695;28;20211;-93
2022/07/25 07:43:50;;;;;;;13.60;12.13;;;26.50;99.90;;;;;;4980732;28;20260;-92
2022/07/25 07:46:16;;;;;;;13.68;11.85;;;26.60;99.90;;;;;;4981507;28;20180;-92
2022/07/25 07:48:42;;;;;;;13.02;11.73;;;26.70;99.90;;;;;;4981275;28;20633;-92
2022/07/25 07:51:08;;;;;;;12.88;11.75;;;26.80;99.90;;;;;;4984949;28;20191;-92
2022/07/25 07:56:18;;;;;;;12.65;11.35;;;27.10;99.90;;;;;;5001158;28;20168;-93
2022/07/25 07:58:44;;;;;;;13.27;12.07;;;27.20;99.90;;;;;;4984685;28;20178;-93
2022/07/25 08:01:10;;;;;;;12.90;11.88;;;27.30;99.90;;;;;;4986699;28;20203;-92
2022/07/25 08:03:37;;;;;;;14.45;13.13;;;27.40;99.90;;;;;;4985972;28;20199;-93
2022/07/25 08:06:03;;;;;;;13.10;11.85;;;27.60;99.90;;;;;;4985437;28;20180;-93
2022/07/25 08:08:29;;;;;;;14.07;12.88;;;27.80;99.90;;;;;;4984587;28;20190;-92
2022/07/25 08:10:55;;;;;;;12.50;11.40;;;27.90;99.90;;;;;;4984128;28;20200;-93
2022/07/25 08:13:25;;;;;;;13.07;11.88;;;28.10;99.90;;;;;;4984345;28;20179;-92
2022/07/25 08:15:54;;;;;;;12.85;11.65;;;28.30;99.90;;;;;;4983775;28;20175;-92
2022/07/25 08:18:21;;;;;;;12.95;11.65;;;28.50;99.90;;;;;;4984133;28;20333;-93
2022/07/25 08:20:47;;;;;;;16.77;12.40;;;28.70;99.90;;;;;;4983356;28;20214;-92
2022/07/25 08:23:14;;;;;;;14.43;12.88;;;29.00;99.90;;;;;;4984204;28;20175;-93
2022/07/25 08:25:40;;;;;;;15.55;12.88;;;29.10;99.90;;;;;;4983882;28;20631;-93
2022/07/25 08:28:06;;;;;;;16.30;12.45;;;29.40;99.90;;;;;;4984794;28;20187;-93
2022/07/25 08:30:33;;;;;;;12.57;11.38;;;29.60;99.90;;;;;;4983794;28;20191;-93
2022/07/25 08:33:04;;;;;;;13.93;12.63;;;29.70;99.90;;;;;;4984516;28;20230;-93
2022/07/25 08:35:32;;;;;;;13.63;12.32;;;30.00;99.90;;;;;;4984756;28;20608;-93
2022/07/25 08:38:01;;;;;;;14.05;12.77;;;30.10;99.90;;;;;;4984785;28;20202;-94
2022/07/25 08:40:28;;;;;;;13.43;12.23;;;30.40;99.90;;;;;;4984474;28;20171;-94
2022/07/25 08:42:55;;;;;;;13.00;11.68;;;30.50;99.90;;;;;;4984317;28;20175;-93
2022/07/25 08:45:22;;;;;;;12.60;11.48;;;30.50;99.90;;;;;;4983631;28;20194;-93
2022/07/25 08:47:50;;;;;;;11.82;10.90;;;30.80;99.90;;;;;;4984030;28;20180;-93
2022/07/25 08:50:18;;;;;;;11.80;10.80;;;31.00;99.90;;;;;;4984115;28;20286;-92
2022/07/25 08:52:46;;;;;;;11.73;10.63;;;31.20;99.90;;;;;;4985162;28;20179;-93
2022/07/25 08:55:20;;;;;;;11.80;9.63;;;31.40;99.90;;;;;;4983319;28;20182;-93
2022/07/25 08:57:47;;;;;;;10.82;9.98;;;31.40;99.90;;;;;;4983634;28;20179;-93
2022/07/25 09:00:25;;;;;;;9.10;8.23;;;31.50;99.90;;;;;;4983378;28;20274;-92
2022/07/25 09:02:56;;;;;;;9.93;8.90;;;31.60;99.90;;;;;;4984237;28;20192;-93
2022/07/25 09:05:23;;;;;;;9.57;8.68;;;31.50;99.50;;;;;;4983412;28;20182;-92
2022/07/25 09:07:50;;;;;;;8.93;7.95;;;31.60;98.50;;;;;;4983342;28;20180;-93
2022/07/25 09:10:23;;;;;;;10.13;8.85;;;31.80;99.00;;;;;;4983249;28;20180;-93
2022/07/25 09:12:57;;;;;;;9.05;8.30;;;31.80;98.40;;;;;;4984992;28;20179;-93
2022/07/25 09:15:25;;;;;;;8.88;8.07;;;32.00;98.30;;;;;;4985976;28;20185;-94
2022/07/25 09:17:52;;;;;;;9.18;8.38;;;32.20;97.30;;;;;;4986521;28;20206;-93
2022/07/25 09:20:20;;;;;;;8.88;8.05;;;32.50;97.20;;;;;;4984035;28;20175;-92
2022/07/25 09:22:47;;;;;;;8.57;7.78;;;32.60;96.50;;;;;;4983205;28;20215;-92
2022/07/25 09:25:25;;;;;;;8.20;7.50;;;32.70;97.10;;;;;;4983945;28;20260;-93
2022/07/25 09:27:51;;;;;;;9.18;8.30;;;32.70;96.00;;;;;;4985151;28;20218;-93
2022/07/25 09:30:18;;;;;;;8.60;7.88;;;32.80;96.10;;;;;;4981328;28;20234;-93
2022/07/25 09:32:44;;;;;;;8.77;7.90;;;32.90;95.30;;;;;;4981395;28;20183;-93
2022/07/25 09:35:11;;;;;;;8.55;7.60;;;33.10;95.20;;;;;;4984849;28;20213;-94
2022/07/25 09:37:37;;;;;;;11.90;8.02;;;33.10;93.60;;;;;;4983801;28;20183;-92
2022/07/25 09:40:14;;;;;;;7.75;6.95;;;33.10;93.50;;;;;;4981950;28;20247;-92
2022/07/25 09:42:41;;;;;;;7.10;6.40;;;33.10;94.20;;;;;;4964925;28;20221;-92
2022/07/25 09:45:11;;;;;;;6.68;5.95;;;33.20;92.80;;;;;;4980334;28;20176;-91
2022/07/25 09:47:56;;;;;;;7.47;6.78;;;33.30;92.20;;;;;;4996379;28;20182;-91
2022/07/25 09:50:27;;;;;;;7.28;6.68;;;33.40;91.50;;;;;;4999719;28;20217;-91
2022/07/25 09:52:55;;;;;;;6.93;6.38;;;33.50;91.30;;;;;;4992483;28;20176;-92
2022/07/25 09:55:22;;;;;;;6.68;6.07;;;33.70;91.30;;;;;;4991709;28;20206;-91
2022/07/25 09:57:51;;;;;;;7.30;5.95;;;33.70;91.40;;;;;;4993730;28;20187;-92
2022/07/25 10:00:24;;;;;;;6.25;5.78;;;33.80;91.10;;;;;;4999342;28;20189;-92
2022/07/25 10:02:53;;;;;;;6.70;5.80;;;34.00;90.50;;;;;;4987553;28;20182;-92
2022/07/25 10:05:19;;;;;;;6.50;6.00;;;34.00;90.30;;;;;;4999834;28;20170;-92
2022/07/25 10:07:48;;;;;;;6.35;5.75;;;34.00;89.80;;;;;;5000022;28;20185;-92
2022/07/25 10:10:35;;;;;;;6.22;5.72;;;34.10;89.30;;;;;;4999668;28;20185;-92
2022/07/25 10:13:16;;;;;;;6.50;5.90;;;34.20;89.40;;;;;;4995349;28;20193;-92
2022/07/25 10:15:50;;;;;;;6.22;5.72;;;34.30;88.30;;;;;;4999744;28;20178;-92
2022/07/25 10:18:23;;;;;;;5.63;5.13;;;34.40;84.70;;;;;;4983108;28;20270;-92
2022/07/25 10:21:08;;;;;;;5.72;5.22;;;34.40;83.60;;;;;;5005292;28;20214;-91
2022/07/25 10:23:37;;;;;;;5.75;5.30;;;34.40;85.20;;;;;;4961088;28;20196;-92
2022/07/25 10:26:08;;;;;;;5.50;5.10;;;34.50;86.20;;;;;;4960641;28;20645;-92
2022/07/25 10:28:46;;;;;;;5.80;5.30;;;34.70;87.30;;;;;;4967316;28;20210;-92
2022/07/25 10:31:30;;;;;;;5.53;5.13;;;34.90;85.20;;;;;;4999117;28;20300;-92
2022/07/25 10:33:58;;;;;;;6.07;5.45;;;34.90;83.20;;;;;;5003901;28;20205;-92
2022/07/25 10:37:01;;;;;;;8.50;5.40;;;34.90;84.10;;;;;;4982489;28;20187;-92
2022/07/25 10:39:55;;;;;;;5.18;4.80;;;35.10;83.50;;;;;;4988404;28;20175;-91
2022/07/25 10:42:47;;;;;;;5.82;5.32;;;35.10;82.60;;;;;;4999016;28;20206;-93
2022/07/25 10:45:16;;;;;;;6.20;5.60;;;35.00;80.60;;;;;;4988617;28;20171;-93
2022/07/25 10:47:58;;;;;;;6.43;5.82;;;34.90;80.40;;;;;;4991221;28;20178;-93
2022/07/25 10:54:17;;;;;;;5.47;5.07;;;35.30;82.00;;;;;;5017222;28;20202;-93
2022/07/25 10:57:00;;;;;;;5.82;5.32;;;35.50;82.70;;;;;;4986966;28;20183;-93
2022/07/25 10:59:36;;;;;;;5.13;4.63;;;35.30;79.00;;;;;;5001978;28;20179;-93
2022/07/25 11:02:20;;;;;;;5.82;5.35;;;35.20;78.90;;;;;;4987744;28;20222;-92
2022/07/25 11:05:14;;;;;;;6.15;5.55;;;35.20;79.30;;;;;;4980042;28;20197;-92
2022/07/25 11:07:53;;;;;;;5.60;5.10;;;35.10;80.30;;;;;;4976991;28;20188;-92
2022/07/25 11:10:35;;;;;;;5.13;4.70;;;35.20;81.00;;;;;;4997951;28;20210;-93
2022/07/25 11:13:01;;;;;;;5.63;5.13;;;35.40;79.40;;;;;;4980294;28;20179;-92
2022/07/25 11:15:34;;;;;;;5.85;5.35;;;35.50;80.20;;;;;;4989988;28;20207;-93
2022/07/25 11:18:01;;;;;;;5.63;4.97;;;35.80;79.70;;;;;;5004998;28;20188;-93
2022/07/25 11:20:30;;;;;;;5.15;4.75;;;35.80;79.10;;;;;;5002803;28;20648;-93
2022/07/25 11:22:58;;;;;;;10.82;4.82;;;35.90;77.50;;;;;;5006572;28;20174;-92
2022/07/25 11:25:25;;;;;;;6.05;5.40;;;35.80;77.90;;;;;;4984473;28;20188;-93
2022/07/25 11:28:02;;;;;;;9.13;5.47;;;35.80;80.00;;;;;;4981316;28;20218;-92
2022/07/25 11:30:38;;;;;;;6.22;5.65;;;35.80;78.90;;;;;;5005048;28;20194;-93
2022/07/25 11:33:05;;;;;;;6.00;5.40;;;35.90;79.10;;;;;;4988072;28;20206;-94
2022/07/25 11:35:33;;;;;;;5.95;5.40;;;36.00;78.50;;;;;;4994082;28;20175;-93
2022/07/25 11:38:01;;;;;;;5.68;5.10;;;36.20;78.10;;;;;;4993407;28;20177;-93
2022/07/25 11:40:27;;;;;;;5.75;5.20;;;36.20;77.30;;;;;;4985408;28;20187;-93
2022/07/25 11:42:58;;;;;;;5.75;5.20;;;36.10;76.20;;;;;;4988543;28;20241;-93
2022/07/25 11:45:32;;;;;;;5.22;4.82;;;36.00;75.50;;;;;;4996420;28;20261;-93
2022/07/25 11:48:18;;;;;;;5.25;4.85;;;35.90;75.50;;;;;;4998657;28;20167;-93
2022/07/25 11:50:44;;;;;;;4.88;4.47;;;36.10;75.30;;;;;;4989488;28;20195;-93
2022/07/25 11:53:14;;;;;;;5.72;4.90;;;36.00;73.80;;;;;;4989137;28;20175;-93
2022/07/25 11:55:46;;;;;;;5.20;4.70;;;36.00;74.90;;;;;;4975711;28;20203;-93
2022/07/25 11:58:17;;;;;;;4.85;4.35;;;36.10;74.70;;;;;;4995813;28;20187;-93
2022/07/25 12:00:47;;;;;;;5.15;4.75;;;36.20;73.20;;;;;;4980293;28;20192;-93
2022/07/25 12:03:16;;;;;;;4.95;4.50;;;36.30;73.70;;;;;;4986658;28;20172;-93
2022/07/25 12:05:47;;;;;;;4.22;3.92;;;36.30;73.80;;;;;;5001371;28;20182;-93
2022/07/25 12:08:18;;;;;;;7.00;4.28;;;36.30;73.50;;;;;;5003586;28;20172;-92
2022/07/25 12:10:50;;;;;;;4.88;4.35;;;36.20;72.10;;;;;;4991391;28;20195;-93
2022/07/25 12:13:29;;;;;;;5.95;4.85;;;35.90;70.90;;;;;;4982239;28;20179;-92
2022/07/25 12:15:57;;;;;;;4.57;4.18;;;35.60;70.80;;;;;;4970214;28;20183;-93
2022/07/25 12:18:24;;;;;;;4.60;4.20;;;35.50;71.30;;;;;;4976039;28;20175;-93
2022/07/25 12:20:52;;;;;;;4.50;4.20;;;35.60;72.20;;;;;;4989202;28;20221;-93
2022/07/25 12:23:20;;;;;;;6.00;4.53;;;35.80;73.30;;;;;;4982103;28;20199;-93
2022/07/25 12:25:48;;;;;;;5.53;5.03;;;36.20;71.90;;;;;;4996021;28;20186;-92
2022/07/25 12:28:15;;;;;;;5.57;5.07;;;36.20;70.80;;;;;;4986140;28;20237;-93
2022/07/25 12:30:43;;;;;;;5.20;4.80;;;36.20;71.90;;;;;;4986441;28;20211;-92
2022/07/25 12:33:13;;;;;;;6.63;5.13;;;36.30;72.70;;;;;;4985822;28;20179;-92
2022/07/25 12:35:49;;;;;;;5.32;4.85;;;36.40;71.80;;;;;;5005422;28;20163;-93
2022/07/25 12:38:19;;;;;;;4.95;4.43;;;36.30;69.40;;;;;;5004435;28;20166;-93
2022/07/25 12:40:45;;;;;;;4.50;4.10;;;36.00;69.50;;;;;;5004007;28;20209;-93
2022/07/25 12:43:11;;;;;;;9.07;4.97;;;35.80;71.20;;;;;;5002545;28;20210;-93
2022/07/25 12:45:37;;;;;;;5.50;5.00;;;35.60;72.90;;;;;;4996457;28;20229;-93